sensor_id;sensor_type;location;lat;lon;timestamp;temperature;humidity
73277;DHT22;61501;43.316;5.372;2023-07-24T00:02:24;27.50;67.20
73277;DHT22;61501;43.316;5.372;2023-07-24T00:04:50;27.40;69.50
73277;DHT22;61501;43.316;5.372;2023-07-24T00:07:16;27.50;71.20
73277;DHT22;61501;43.316;5.372;2023-07-24T00:09:41;27.50;73.00
73277;DHT22;61501;43.316;5.372;2023-07-24T00:12:07;27.50;74.30
73277;DHT22;61501;43.316;5.372;2023-07-24T00:14:33;27.50;72.50
73277;DHT22;61501;43.316;5.372;2023-07-24T00:16:59;27.60;74.40
73277;DHT22;61501;43.316;5.372;2023-07-24T00:19:24;27.50;73.00
73277;DHT22;61501;43.316;5.372;2023-07-24T00:21:50;27.50;72.50
73277;DHT22;61501;43.316;5.372;2023-07-24T00:24:16;27.50;69.50
73277;DHT22;61501;43.316;5.372;2023-07-24T00:26:41;27.40;72.90
73277;DHT22;61501;43.316;5.372;2023-07-24T00:29:07;27.40;77.90
73277;DHT22;61501;43.316;5.372;2023-07-24T00:31:32;27.50;80.60
73277;DHT22;61501;43.316;5.372;2023-07-24T00:33:58;27.50;76.40
73277;DHT22;61501;43.316;5.372;2023-07-24T00:36:26;27.50;78.20
73277;DHT22;61501;43.316;5.372;2023-07-24T00:38:51;27.50;81.90
73277;DHT22;61501;43.316;5.372;2023-07-24T00:41:17;27.60;76.30
73277;DHT22;61501;43.316;5.372;2023-07-24T00:43:43;27.60;79.20
73277;DHT22;61501;43.316;5.372;2023-07-24T00:46:10;27.60;81.00
73277;DHT22;61501;43.316;5.372;2023-07-24T00:48:37;27.60;80.50
73277;DHT22;61501;43.316;5.372;2023-07-24T00:51:03;27.50;80.30
73277;DHT22;61501;43.316;5.372;2023-07-24T00:53:28;27.50;77.30
73277;DHT22;61501;43.316;5.372;2023-07-24T00:55:54;27.50;75.10
73277;DHT22;61501;43.316;5.372;2023-07-24T00:58:20;27.40;73.30
73277;DHT22;61501;43.316;5.372;2023-07-24T01:00:47;27.40;70.00
73277;DHT22;61501;43.316;5.372;2023-07-24T01:03:12;27.40;70.20
73277;DHT22;61501;43.316;5.372;2023-07-24T01:05:38;27.40;69.80
73277;DHT22;61501;43.316;5.372;2023-07-24T01:08:07;27.40;68.20
73277;DHT22;61501;43.316;5.372;2023-07-24T01:10:32;27.50;65.60
73277;DHT22;61501;43.316;5.372;2023-07-24T01:13:05;27.50;71.10
73277;DHT22;61501;43.316;5.372;2023-07-24T01:15:42;27.40;71.20
73277;DHT22;61501;43.316;5.372;2023-07-24T01:18:08;27.40;69.90
73277;DHT22;61501;43.316;5.372;2023-07-24T01:20:36;27.40;67.10
73277;DHT22;61501;43.316;5.372;2023-07-24T01:23:38;27.40;67.30
73277;DHT22;61501;43.316;5.372;2023-07-24T01:26:06;27.40;65.80
73277;DHT22;61501;43.316;5.372;2023-07-24T01:28:33;27.40;65.00
73277;DHT22;61501;43.316;5.372;2023-07-24T01:30:58;27.40;64.00
73277;DHT22;61501;43.316;5.372;2023-07-24T01:33:24;27.40;66.40
73277;DHT22;61501;43.316;5.372;2023-07-24T01:35:57;27.40;64.90
73277;DHT22;61501;43.316;5.372;2023-07-24T01:38:26;27.40;63.90
73277;DHT22;61501;43.316;5.372;2023-07-24T01:40:53;27.40;62.50
73277;DHT22;61501;43.316;5.372;2023-07-24T01:43:19;27.40;62.40
73277;DHT22;61501;43.316;5.372;2023-07-24T01:45:45;27.40;63.20
73277;DHT22;61501;43.316;5.372;2023-07-24T01:48:10;27.40;63.40
73277;DHT22;61501;43.316;5.372;2023-07-24T01:50:36;27.40;66.10
73277;DHT22;61501;43.316;5.372;2023-07-24T01:53:02;27.40;64.40
73277;DHT22;61501;43.316;5.372;2023-07-24T01:55:27;27.40;64.40
73277;DHT22;61501;43.316;5.372;2023-07-24T01:57:53;27.40;63.70
73277;DHT22;61501;43.316;5.372;2023-07-24T02:00:19;27.40;65.10
73277;DHT22;61501;43.316;5.372;2023-07-24T02:02:44;27.40;62.90
73277;DHT22;61501;43.316;5.372;2023-07-24T02:05:10;27.40;66.10
73277;DHT22;61501;43.316;5.372;2023-07-24T02:07:36;27.30;65.10
73277;DHT22;61501;43.316;5.372;2023-07-24T02:10:01;27.30;65.20
73277;DHT22;61501;43.316;5.372;2023-07-24T02:12:27;27.30;63.10
73277;DHT22;61501;43.316;5.372;2023-07-24T02:14:53;27.30;61.70
73277;DHT22;61501;43.316;5.372;2023-07-24T02:17:20;27.20;61.70
73277;DHT22;61501;43.316;5.372;2023-07-24T02:19:45;27.20;63.50
73277;DHT22;61501;43.316;5.372;2023-07-24T02:22:11;27.30;61.60
73277;DHT22;61501;43.316;5.372;2023-07-24T02:24:37;27.20;60.90
73277;DHT22;61501;43.316;5.372;2023-07-24T02:27:02;27.30;61.70
73277;DHT22;61501;43.316;5.372;2023-07-24T02:29:28;27.20;61.50
73277;DHT22;61501;43.316;5.372;2023-07-24T02:31:54;27.30;57.60
73277;DHT22;61501;43.316;5.372;2023-07-24T02:34:20;27.20;59.40
73277;DHT22;61501;43.316;5.372;2023-07-24T02:36:50;27.20;59.00
73277;DHT22;61501;43.316;5.372;2023-07-24T02:39:16;27.20;60.20
73277;DHT22;61501;43.316;5.372;2023-07-24T02:41:41;27.20;58.50
73277;DHT22;61501;43.316;5.372;2023-07-24T02:44:07;27.10;56.20
73277;DHT22;61501;43.316;5.372;2023-07-24T02:46:33;27.10;56.60
73277;DHT22;61501;43.316;5.372;2023-07-24T02:48:58;27.20;57.00
73277;DHT22;61501;43.316;5.372;2023-07-24T02:51:24;27.20;56.60
73277;DHT22;61501;43.316;5.372;2023-07-24T02:53:49;27.20;58.10
73277;DHT22;61501;43.316;5.372;2023-07-24T02:56:15;27.20;57.70
73277;DHT22;61501;43.316;5.372;2023-07-24T02:58:41;27.10;55.20
73277;DHT22;61501;43.316;5.372;2023-07-24T03:01:07;27.10;58.50
73277;DHT22;61501;43.316;5.372;2023-07-24T03:03:33;27.20;56.40
73277;DHT22;61501;43.316;5.372;2023-07-24T03:05:59;27.20;59.00
73277;DHT22;61501;43.316;5.372;2023-07-24T03:08:25;27.10;57.60
73277;DHT22;61501;43.316;5.372;2023-07-24T03:10:50;27.10;57.10
73277;DHT22;61501;43.316;5.372;2023-07-24T03:13:16;27.10;57.90
73277;DHT22;61501;43.316;5.372;2023-07-24T03:15:42;27.10;58.10
73277;DHT22;61501;43.316;5.372;2023-07-24T03:18:07;27.10;56.70
73277;DHT22;61501;43.316;5.372;2023-07-24T03:20:33;27.00;56.10
73277;DHT22;61501;43.316;5.372;2023-07-24T03:22:59;27.00;56.10
73277;DHT22;61501;43.316;5.372;2023-07-24T03:25:24;27.10;57.60
73277;DHT22;61501;43.316;5.372;2023-07-24T03:27:50;27.00;56.20
73277;DHT22;61501;43.316;5.372;2023-07-24T03:30:15;27.10;56.80
73277;DHT22;61501;43.316;5.372;2023-07-24T03:32:41;27.00;58.00
73277;DHT22;61501;43.316;5.372;2023-07-24T03:35:07;27.00;57.30
73277;DHT22;61501;43.316;5.372;2023-07-24T03:37:34;27.00;58.10
73277;DHT22;61501;43.316;5.372;2023-07-24T03:40:01;27.00;57.30
73277;DHT22;61501;43.316;5.372;2023-07-24T03:42:29;27.00;56.10
73277;DHT22;61501;43.316;5.372;2023-07-24T03:44:56;27.00;57.30
73277;DHT22;61501;43.316;5.372;2023-07-24T03:47:23;26.90;57.80
73277;DHT22;61501;43.316;5.372;2023-07-24T03:49:49;26.90;56.80
73277;DHT22;61501;43.316;5.372;2023-07-24T03:52:15;26.90;56.60
73277;DHT22;61501;43.316;5.372;2023-07-24T03:54:41;26.90;57.60
73277;DHT22;61501;43.316;5.372;2023-07-24T03:57:07;26.90;58.30
73277;DHT22;61501;43.316;5.372;2023-07-24T03:59:33;26.90;56.90
73277;DHT22;61501;43.316;5.372;2023-07-24T04:01:58;27.00;57.30
73277;DHT22;61501;43.316;5.372;2023-07-24T04:04:24;26.90;57.40
73277;DHT22;61501;43.316;5.372;2023-07-24T04:06:50;26.90;58.00
73277;DHT22;61501;43.316;5.372;2023-07-24T04:09:16;27.00;57.40
73277;DHT22;61501;43.316;5.372;2023-07-24T04:11:43;26.90;56.50
73277;DHT22;61501;43.316;5.372;2023-07-24T04:14:09;26.90;57.70
73277;DHT22;61501;43.316;5.372;2023-07-24T04:16:34;26.90;58.00
73277;DHT22;61501;43.316;5.372;2023-07-24T04:19:00;26.90;57.60
73277;DHT22;61501;43.316;5.372;2023-07-24T04:21:25;26.90;57.70
73277;DHT22;61501;43.316;5.372;2023-07-24T04:23:51;26.90;57.30
73277;DHT22;61501;43.316;5.372;2023-07-24T04:26:17;26.90;58.60
73277;DHT22;61501;43.316;5.372;2023-07-24T04:28:42;26.90;58.40
73277;DHT22;61501;43.316;5.372;2023-07-24T04:31:08;26.90;57.50
73277;DHT22;61501;43.316;5.372;2023-07-24T04:33:33;26.80;58.50
73277;DHT22;61501;43.316;5.372;2023-07-24T04:35:59;26.80;59.20
73277;DHT22;61501;43.316;5.372;2023-07-24T04:38:25;26.80;59.70
73277;DHT22;61501;43.316;5.372;2023-07-24T04:40:51;26.80;58.20
73277;DHT22;61501;43.316;5.372;2023-07-24T04:43:16;26.80;58.70
73277;DHT22;61501;43.316;5.372;2023-07-24T04:45:42;26.80;58.70
73277;DHT22;61501;43.316;5.372;2023-07-24T04:48:08;26.80;58.30
73277;DHT22;61501;43.316;5.372;2023-07-24T04:50:33;26.80;59.00
73277;DHT22;61501;43.316;5.372;2023-07-24T04:52:59;26.90;59.70
73277;DHT22;61501;43.316;5.372;2023-07-24T04:55:25;26.90;59.40
73277;DHT22;61501;43.316;5.372;2023-07-24T04:57:50;26.90;60.10
73277;DHT22;61501;43.316;5.372;2023-07-24T05:00:16;27.00;59.10
73277;DHT22;61501;43.316;5.372;2023-07-24T05:02:42;27.00;58.90
73277;DHT22;61501;43.316;5.372;2023-07-24T05:05:08;27.00;58.50
73277;DHT22;61501;43.316;5.372;2023-07-24T05:07:34;27.00;59.70
73277;DHT22;61501;43.316;5.372;2023-07-24T05:09:59;27.00;59.80
73277;DHT22;61501;43.316;5.372;2023-07-24T05:12:25;27.00;60.50
73277;DHT22;61501;43.316;5.372;2023-07-24T05:14:51;27.00;60.00
73277;DHT22;61501;43.316;5.372;2023-07-24T05:17:16;27.00;59.50
73277;DHT22;61501;43.316;5.372;2023-07-24T05:19:42;27.10;61.90
73277;DHT22;61501;43.316;5.372;2023-07-24T05:22:08;27.00;61.40
73277;DHT22;61501;43.316;5.372;2023-07-24T05:24:38;27.00;60.00
73277;DHT22;61501;43.316;5.372;2023-07-24T05:27:07;27.10;59.70
73277;DHT22;61501;43.316;5.372;2023-07-24T05:29:33;27.10;59.50
73277;DHT22;61501;43.316;5.372;2023-07-24T05:31:58;27.10;61.60
73277;DHT22;61501;43.316;5.372;2023-07-24T05:34:25;27.20;61.60
73277;DHT22;61501;43.316;5.372;2023-07-24T05:36:50;27.30;61.50
73277;DHT22;61501;43.316;5.372;2023-07-24T05:39:16;27.20;61.40
73277;DHT22;61501;43.316;5.372;2023-07-24T05:41:42;27.30;60.00
73277;DHT22;61501;43.316;5.372;2023-07-24T05:44:07;27.20;60.80
73277;DHT22;61501;43.316;5.372;2023-07-24T05:46:33;27.20;60.80
73277;DHT22;61501;43.316;5.372;2023-07-24T05:48:59;27.10;60.70
73277;DHT22;61501;43.316;5.372;2023-07-24T05:51:27;27.20;61.40
73277;DHT22;61501;43.316;5.372;2023-07-24T05:53:52;27.20;61.50
73277;DHT22;61501;43.316;5.372;2023-07-24T05:56:18;27.20;61.60
73277;DHT22;61501;43.316;5.372;2023-07-24T05:58:44;27.20;62.00
73277;DHT22;61501;43.316;5.372;2023-07-24T06:01:10;27.40;60.60
73277;DHT22;61501;43.316;5.372;2023-07-24T06:03:36;27.50;60.00
73277;DHT22;61501;43.316;5.372;2023-07-24T06:06:02;27.60;60.60
73277;DHT22;61501;43.316;5.372;2023-07-24T06:08:28;27.50;60.40
73277;DHT22;61501;43.316;5.372;2023-07-24T06:10:53;27.70;61.10
73277;DHT22;61501;43.316;5.372;2023-07-24T06:13:20;27.60;59.50
73277;DHT22;61501;43.316;5.372;2023-07-24T06:15:49;27.60;58.90
73277;DHT22;61501;43.316;5.372;2023-07-24T06:18:15;27.60;59.90
73277;DHT22;61501;43.316;5.372;2023-07-24T06:20:41;27.70;58.90
73277;DHT22;61501;43.316;5.372;2023-07-24T06:23:06;27.80;60.00
73277;DHT22;61501;43.316;5.372;2023-07-24T06:25:33;27.90;58.40
73277;DHT22;61501;43.316;5.372;2023-07-24T06:27:58;27.90;59.20
73277;DHT22;61501;43.316;5.372;2023-07-24T06:30:25;27.90;59.20
73277;DHT22;61501;43.316;5.372;2023-07-24T06:32:51;27.90;59.20
73277;DHT22;61501;43.316;5.372;2023-07-24T06:35:17;28.00;58.70
73277;DHT22;61501;43.316;5.372;2023-07-24T06:37:43;28.10;58.70
73277;DHT22;61501;43.316;5.372;2023-07-24T06:40:09;28.10;59.30
73277;DHT22;61501;43.316;5.372;2023-07-24T06:42:35;28.20;58.20
73277;DHT22;61501;43.316;5.372;2023-07-24T06:45:01;28.20;57.40
73277;DHT22;61501;43.316;5.372;2023-07-24T06:47:26;28.30;57.30
73277;DHT22;61501;43.316;5.372;2023-07-24T06:49:52;28.40;56.70
73277;DHT22;61501;43.316;5.372;2023-07-24T06:52:18;28.50;57.60
73277;DHT22;61501;43.316;5.372;2023-07-24T06:54:44;28.60;56.10
73277;DHT22;61501;43.316;5.372;2023-07-24T06:57:09;28.70;55.90
73277;DHT22;61501;43.316;5.372;2023-07-24T06:59:35;28.80;55.70
73277;DHT22;61501;43.316;5.372;2023-07-24T07:02:01;28.70;56.70
73277;DHT22;61501;43.316;5.372;2023-07-24T07:04:26;28.70;55.70
73277;DHT22;61501;43.316;5.372;2023-07-24T07:06:52;28.70;56.40
73277;DHT22;61501;43.316;5.372;2023-07-24T07:09:17;28.80;54.30
73277;DHT22;61501;43.316;5.372;2023-07-24T07:11:43;28.80;56.20
73277;DHT22;61501;43.316;5.372;2023-07-24T07:14:10;29.00;55.70
73277;DHT22;61501;43.316;5.372;2023-07-24T07:16:36;29.10;55.00
73277;DHT22;61501;43.316;5.372;2023-07-24T07:19:01;29.00;55.70
73277;DHT22;61501;43.316;5.372;2023-07-24T07:21:27;29.00;55.50
73277;DHT22;61501;43.316;5.372;2023-07-24T07:23:52;29.30;55.30
73277;DHT22;61501;43.316;5.372;2023-07-24T07:26:18;29.40;56.30
73277;DHT22;61501;43.316;5.372;2023-07-24T07:28:44;29.50;54.70
73277;DHT22;61501;43.316;5.372;2023-07-24T07:31:12;29.70;53.80
73277;DHT22;61501;43.316;5.372;2023-07-24T07:33:38;29.60;52.50
73277;DHT22;61501;43.316;5.372;2023-07-24T07:36:04;29.70;52.20
73277;DHT22;61501;43.316;5.372;2023-07-24T07:38:31;29.50;52.40
73277;DHT22;61501;43.316;5.372;2023-07-24T07:40:57;29.50;51.80
73277;DHT22;61501;43.316;5.372;2023-07-24T07:43:22;29.60;52.40
73277;DHT22;61501;43.316;5.372;2023-07-24T07:45:48;29.60;53.40
73277;DHT22;61501;43.316;5.372;2023-07-24T07:48:14;29.80;52.80
73277;DHT22;61501;43.316;5.372;2023-07-24T07:50:39;29.80;53.10
73277;DHT22;61501;43.316;5.372;2023-07-24T07:53:05;29.30;55.70
73277;DHT22;61501;43.316;5.372;2023-07-24T07:55:30;28.30;69.20
73277;DHT22;61501;43.316;5.372;2023-07-24T07:57:56;27.60;73.40
73277;DHT22;61501;43.316;5.372;2023-07-24T08:00:22;27.50;81.00
73277;DHT22;61501;43.316;5.372;2023-07-24T08:02:48;27.60;78.30
73277;DHT22;61501;43.316;5.372;2023-07-24T08:05:14;27.70;75.00
73277;DHT22;61501;43.316;5.372;2023-07-24T08:07:40;27.70;70.00
73277;DHT22;61501;43.316;5.372;2023-07-24T08:10:06;27.80;68.80
73277;DHT22;61501;43.316;5.372;2023-07-24T08:12:32;27.90;69.90
73277;DHT22;61501;43.316;5.372;2023-07-24T08:14:58;28.00;69.40
73277;DHT22;61501;43.316;5.372;2023-07-24T08:17:24;28.00;69.00
73277;DHT22;61501;43.316;5.372;2023-07-24T08:19:49;28.00;72.10
73277;DHT22;61501;43.316;5.372;2023-07-24T08:22:15;28.00;72.20
73277;DHT22;61501;43.316;5.372;2023-07-24T08:24:41;28.10;72.00
73277;DHT22;61501;43.316;5.372;2023-07-24T08:27:06;28.20;70.00
73277;DHT22;61501;43.316;5.372;2023-07-24T08:29:32;28.20;70.20
73277;DHT22;61501;43.316;5.372;2023-07-24T08:31:58;28.40;74.00
73277;DHT22;61501;43.316;5.372;2023-07-24T08:34:24;28.50;73.00
73277;DHT22;61501;43.316;5.372;2023-07-24T08:36:50;28.40;72.80
73277;DHT22;61501;43.316;5.372;2023-07-24T08:39:16;28.30;80.70
73277;DHT22;61501;43.316;5.372;2023-07-24T08:41:41;28.40;74.80
73277;DHT22;61501;43.316;5.372;2023-07-24T08:44:08;28.40;76.80
73277;DHT22;61501;43.316;5.372;2023-07-24T08:46:38;28.30;76.10
73277;DHT22;61501;43.316;5.372;2023-07-24T08:49:15;28.30;73.20
73277;DHT22;61501;43.316;5.372;2023-07-24T08:51:41;28.60;73.50
73277;DHT22;61501;43.316;5.372;2023-07-24T08:54:08;28.70;73.20
73277;DHT22;61501;43.316;5.372;2023-07-24T08:56:36;28.70;70.20
73277;DHT22;61501;43.316;5.372;2023-07-24T08:59:03;28.70;70.20
73277;DHT22;61501;43.316;5.372;2023-07-24T09:01:29;28.60;69.10
73277;DHT22;61501;43.316;5.372;2023-07-24T09:03:55;28.60;71.10
73277;DHT22;61501;43.316;5.372;2023-07-24T09:06:21;28.50;71.10
73277;DHT22;61501;43.316;5.372;2023-07-24T09:08:46;28.50;70.90
73277;DHT22;61501;43.316;5.372;2023-07-24T09:11:14;28.40;69.30
73277;DHT22;61501;43.316;5.372;2023-07-24T09:13:42;28.60;71.40
73277;DHT22;61501;43.316;5.372;2023-07-24T09:16:08;28.50;68.90
73277;DHT22;61501;43.316;5.372;2023-07-24T09:18:41;28.50;71.20
73277;DHT22;61501;43.316;5.372;2023-07-24T09:21:07;28.50;70.90
73277;DHT22;61501;43.316;5.372;2023-07-24T09:23:33;28.40;71.60
73277;DHT22;61501;43.316;5.372;2023-07-24T09:25:58;28.30;74.70
73277;DHT22;61501;43.316;5.372;2023-07-24T09:28:27;28.10;76.70
73277;DHT22;61501;43.316;5.372;2023-07-24T09:30:57;28.00;78.60
73277;DHT22;61501;43.316;5.372;2023-07-24T09:33:37;28.00;83.70
73277;DHT22;61501;43.316;5.372;2023-07-24T09:36:04;28.20;85.60
73277;DHT22;61501;43.316;5.372;2023-07-24T09:38:31;28.20;89.80
73277;DHT22;61501;43.316;5.372;2023-07-24T09:40:57;28.60;83.20
73277;DHT22;61501;43.316;5.372;2023-07-24T09:43:24;28.40;80.20
73277;DHT22;61501;43.316;5.372;2023-07-24T09:45:52;28.50;83.90
73277;DHT22;61501;43.316;5.372;2023-07-24T09:48:18;28.60;87.30
73277;DHT22;61501;43.316;5.372;2023-07-24T09:50:46;28.40;87.40
73277;DHT22;61501;43.316;5.372;2023-07-24T09:55:56;28.60;81.40
73277;DHT22;61501;43.316;5.372;2023-07-24T09:58:23;28.70;79.60
73277;DHT22;61501;43.316;5.372;2023-07-24T10:00:50;28.60;87.50
73277;DHT22;61501;43.316;5.372;2023-07-24T10:03:16;28.50;91.10
73277;DHT22;61501;43.316;5.372;2023-07-24T10:05:44;28.70;86.90
73277;DHT22;61501;43.316;5.372;2023-07-24T10:08:11;28.90;86.30
73277;DHT22;61501;43.316;5.372;2023-07-24T10:10:38;29.20;85.00
73277;DHT22;61501;43.316;5.372;2023-07-24T10:13:05;29.30;84.70
73277;DHT22;61501;43.316;5.372;2023-07-24T10:15:32;29.20;84.60
73277;DHT22;61501;43.316;5.372;2023-07-24T10:18:06;29.00;90.30
73277;DHT22;61501;43.316;5.372;2023-07-24T10:20:39;28.90;92.50
73277;DHT22;61501;43.316;5.372;2023-07-24T10:23:07;28.90;93.20
73277;DHT22;61501;43.316;5.372;2023-07-24T10:25:36;28.80;93.00
73277;DHT22;61501;43.316;5.372;2023-07-24T10:28:06;28.70;94.50
73277;DHT22;61501;43.316;5.372;2023-07-24T10:30:55;28.70;91.90
73277;DHT22;61501;43.316;5.372;2023-07-24T10:33:22;28.90;90.40
73277;DHT22;61501;43.316;5.372;2023-07-24T10:35:53;28.80;85.80
73277;DHT22;61501;43.316;5.372;2023-07-24T10:38:19;28.70;93.10
73277;DHT22;61501;43.316;5.372;2023-07-24T10:40:46;28.90;91.80
73277;DHT22;61501;43.316;5.372;2023-07-24T10:43:18;28.80;91.10
73277;DHT22;61501;43.316;5.372;2023-07-24T10:48:13;28.70;90.00
73277;DHT22;61501;43.316;5.372;2023-07-24T10:50:40;28.90;90.50
73277;DHT22;61501;43.316;5.372;2023-07-24T10:53:07;28.70;90.30
73277;DHT22;61501;43.316;5.372;2023-07-24T10:55:33;29.00;89.00
73277;DHT22;61501;43.316;5.372;2023-07-24T10:57:59;28.60;96.20
73277;DHT22;61501;43.316;5.372;2023-07-24T11:00:25;28.30;99.90
73277;DHT22;61501;43.316;5.372;2023-07-24T11:02:53;28.10;99.90
73277;DHT22;61501;43.316;5.372;2023-07-24T11:05:22;27.80;99.90
73277;DHT22;61501;43.316;5.372;2023-07-24T11:07:48;27.80;99.90
73277;DHT22;61501;43.316;5.372;2023-07-24T11:10:19;27.50;99.90
73277;DHT22;61501;43.316;5.372;2023-07-24T11:12:45;27.20;99.90
73277;DHT22;61501;43.316;5.372;2023-07-24T11:15:12;27.50;99.90
73277;DHT22;61501;43.316;5.372;2023-07-24T11:17:39;27.50;99.90
73277;DHT22;61501;43.316;5.372;2023-07-24T11:20:11;27.50;99.90
73277;DHT22;61501;43.316;5.372;2023-07-24T11:22:42;27.50;99.90
73277;DHT22;61501;43.316;5.372;2023-07-24T11:25:09;27.90;99.90
73277;DHT22;61501;43.316;5.372;2023-07-24T11:27:42;28.00;99.90
73277;DHT22;61501;43.316;5.372;2023-07-24T11:30:10;28.20;99.90
73277;DHT22;61501;43.316;5.372;2023-07-24T11:32:39;28.00;99.90
73277;DHT22;61501;43.316;5.372;2023-07-24T11:35:05;27.90;99.90
73277;DHT22;61501;43.316;5.372;2023-07-24T11:37:31;28.00;99.90
73277;DHT22;61501;43.316;5.372;2023-07-24T11:39:59;27.40;99.90
73277;DHT22;61501;43.316;5.372;2023-07-24T11:42:27;27.30;99.90
73277;DHT22;61501;43.316;5.372;2023-07-24T11:44:54;27.30;99.90
73277;DHT22;61501;43.316;5.372;2023-07-24T11:47:20;27.20;99.90
73277;DHT22;61501;43.316;5.372;2023-07-24T11:49:59;27.40;99.90
73277;DHT22;61501;43.316;5.372;2023-07-24T11:52:25;27.30;99.90
73277;DHT22;61501;43.316;5.372;2023-07-24T11:54:58;27.40;99.90
73277;DHT22;61501;43.316;5.372;2023-07-24T11:57:29;27.50;99.90
73277;DHT22;61501;43.316;5.372;2023-07-24T11:59:54;27.40;99.90
73277;DHT22;61501;43.316;5.372;2023-07-24T12:02:25;27.70;99.90
73277;DHT22;61501;43.316;5.372;2023-07-24T12:04:57;28.20;99.90
73277;DHT22;61501;43.316;5.372;2023-07-24T12:07:29;27.80;99.90
73277;DHT22;61501;43.316;5.372;2023-07-24T12:09:55;27.90;99.90
73277;DHT22;61501;43.316;5.372;2023-07-24T12:12:21;27.90;99.90
73277;DHT22;61501;43.316;5.372;2023-07-24T12:14:47;28.30;99.90
73277;DHT22;61501;43.316;5.372;2023-07-24T12:17:18;28.00;99.90
73277;DHT22;61501;43.316;5.372;2023-07-24T12:19:45;27.80;99.90
73277;DHT22;61501;43.316;5.372;2023-07-24T12:22:10;28.20;99.90
73277;DHT22;61501;43.316;5.372;2023-07-24T12:24:36;28.80;99.90
73277;DHT22;61501;43.316;5.372;2023-07-24T12:27:02;28.80;99.90
73277;DHT22;61501;43.316;5.372;2023-07-24T12:29:27;29.30;99.90
73277;DHT22;61501;43.316;5.372;2023-07-24T12:31:53;29.20;99.90
73277;DHT22;61501;43.316;5.372;2023-07-24T12:34:19;29.30;99.90
73277;DHT22;61501;43.316;5.372;2023-07-24T12:36:44;29.00;99.90
73277;DHT22;61501;43.316;5.372;2023-07-24T12:39:12;29.30;99.90
73277;DHT22;61501;43.316;5.372;2023-07-24T12:41:37;29.20;99.90
73277;DHT22;61501;43.316;5.372;2023-07-24T12:44:03;29.90;96.90
73277;DHT22;61501;43.316;5.372;2023-07-24T12:46:29;29.90;94.00
73277;DHT22;61501;43.316;5.372;2023-07-24T12:48:55;30.70;89.70
73277;DHT22;61501;43.316;5.372;2023-07-24T12:51:20;31.10;81.10
73277;DHT22;61501;43.316;5.372;2023-07-24T12:53:46;31.00;73.00
73277;DHT22;61501;43.316;5.372;2023-07-24T12:56:12;31.50;75.90
73277;DHT22;61501;43.316;5.372;2023-07-24T12:58:37;32.10;70.80
73277;DHT22;61501;43.316;5.372;2023-07-24T13:01:03;32.60;71.50
73277;DHT22;61501;43.316;5.372;2023-07-24T13:03:31;32.90;70.90
73277;DHT22;61501;43.316;5.372;2023-07-24T13:05:57;32.60;69.20
73277;DHT22;61501;43.316;5.372;2023-07-24T13:08:23;32.00;73.00
73277;DHT22;61501;43.316;5.372;2023-07-24T13:10:49;32.60;68.90
73277;DHT22;61501;43.316;5.372;2023-07-24T13:13:14;33.40;68.10
73277;DHT22;61501;43.316;5.372;2023-07-24T13:15:40;33.90;64.90
73277;DHT22;61501;43.316;5.372;2023-07-24T13:18:05;34.40;61.20
73277;DHT22;61501;43.316;5.372;2023-07-24T13:20:31;34.30;61.70
73277;DHT22;61501;43.316;5.372;2023-07-24T13:22:57;33.70;62.30
73277;DHT22;61501;43.316;5.372;2023-07-24T13:25:22;33.60;69.00
73277;DHT22;61501;43.316;5.372;2023-07-24T13:27:48;33.40;70.30
73277;DHT22;61501;43.316;5.372;2023-07-24T13:30:14;32.90;77.70
73277;DHT22;61501;43.316;5.372;2023-07-24T13:32:40;33.00;74.60
73277;DHT22;61501;43.316;5.372;2023-07-24T13:35:05;33.50;71.60
73277;DHT22;61501;43.316;5.372;2023-07-24T13:37:31;34.10;66.60
73277;DHT22;61501;43.316;5.372;2023-07-24T13:39:57;34.40;68.10
73277;DHT22;61501;43.316;5.372;2023-07-24T13:42:22;34.30;68.20
73277;DHT22;61501;43.316;5.372;2023-07-24T13:44:48;34.10;68.10
73277;DHT22;61501;43.316;5.372;2023-07-24T13:47:13;33.90;69.70
73277;DHT22;61501;43.316;5.372;2023-07-24T13:49:39;34.00;71.90
73277;DHT22;61501;43.316;5.372;2023-07-24T13:52:05;33.90;66.70
73277;DHT22;61501;43.316;5.372;2023-07-24T13:54:31;34.40;63.60
73277;DHT22;61501;43.316;5.372;2023-07-24T13:56:56;34.30;66.00
73277;DHT22;61501;43.316;5.372;2023-07-24T13:59:22;34.10;71.70
73277;DHT22;61501;43.316;5.372;2023-07-24T14:01:47;33.80;75.40
73277;DHT22;61501;43.316;5.372;2023-07-24T14:04:13;33.30;80.30
73277;DHT22;61501;43.316;5.372;2023-07-24T14:06:39;33.10;80.40
73277;DHT22;61501;43.316;5.372;2023-07-24T14:09:05;33.20;81.10
73277;DHT22;61501;43.316;5.372;2023-07-24T14:11:31;33.60;79.10
73277;DHT22;61501;43.316;5.372;2023-07-24T14:13:56;33.70;75.50
73277;DHT22;61501;43.316;5.372;2023-07-24T14:16:22;33.50;76.50
73277;DHT22;61501;43.316;5.372;2023-07-24T14:18:48;32.30;87.60
73277;DHT22;61501;43.316;5.372;2023-07-24T14:21:13;32.60;90.00
73277;DHT22;61501;43.316;5.372;2023-07-24T14:23:39;32.20;93.70
73277;DHT22;61501;43.316;5.372;2023-07-24T14:26:04;31.60;98.50
73277;DHT22;61501;43.316;5.372;2023-07-24T14:28:30;31.90;99.30
73277;DHT22;61501;43.316;5.372;2023-07-24T14:30:56;31.60;99.90
73277;DHT22;61501;43.316;5.372;2023-07-24T14:33:21;31.20;99.90
73277;DHT22;61501;43.316;5.372;2023-07-24T14:35:47;31.50;99.90
73277;DHT22;61501;43.316;5.372;2023-07-24T14:38:13;31.60;99.90
73277;DHT22;61501;43.316;5.372;2023-07-24T14:40:39;31.30;99.90
73277;DHT22;61501;43.316;5.372;2023-07-24T14:43:05;31.50;99.90
73277;DHT22;61501;43.316;5.372;2023-07-24T14:45:30;31.70;99.90
73277;DHT22;61501;43.316;5.372;2023-07-24T14:47:56;31.70;99.90
73277;DHT22;61501;43.316;5.372;2023-07-24T14:50:22;31.80;99.90
73277;DHT22;61501;43.316;5.372;2023-07-24T14:52:47;31.70;99.90
73277;DHT22;61501;43.316;5.372;2023-07-24T14:55:14;31.90;99.90
73277;DHT22;61501;43.316;5.372;2023-07-24T14:57:40;31.50;99.90
73277;DHT22;61501;43.316;5.372;2023-07-24T15:00:06;31.10;99.90
73277;DHT22;61501;43.316;5.372;2023-07-24T15:02:32;31.20;99.90
73277;DHT22;61501;43.316;5.372;2023-07-24T15:04:58;31.00;99.90
73277;DHT22;61501;43.316;5.372;2023-07-24T15:07:24;31.10;99.90
73277;DHT22;61501;43.316;5.372;2023-07-24T15:09:50;31.10;99.90
73277;DHT22;61501;43.316;5.372;2023-07-24T15:12:15;30.70;99.90
73277;DHT22;61501;43.316;5.372;2023-07-24T15:14:41;30.80;99.90
73277;DHT22;61501;43.316;5.372;2023-07-24T15:17:06;30.80;99.90
73277;DHT22;61501;43.316;5.372;2023-07-24T15:19:32;31.00;99.90
73277;DHT22;61501;43.316;5.372;2023-07-24T15:21:58;31.20;99.90
73277;DHT22;61501;43.316;5.372;2023-07-24T15:24:23;31.00;99.90
73277;DHT22;61501;43.316;5.372;2023-07-24T15:26:49;30.70;99.90
73277;DHT22;61501;43.316;5.372;2023-07-24T15:29:15;31.00;99.90
73277;DHT22;61501;43.316;5.372;2023-07-24T15:31:40;31.00;99.90